sensor_id;sensor_type;location;lat;lon;timestamp;P1;durP1;ratioP1;P2;durP2;ratioP2
3901;SDS011;1966;49.908;9.156;2023-03-01T00:02:48;11.63;;;7.40;;
3901;SDS011;1966;49.908;9.156;2023-03-01T00:07:47;14.70;;;8.13;;
3901;SDS011;1966;49.908;9.156;2023-03-01T00:12:48;9.23;;;6.67;;
3901;SDS011;1966;49.908;9.156;2023-03-01T00:17:47;14.47;;;7.87;;
3901;SDS011;1966;49.908;9.156;2023-03-01T00:22:46;9.33;;;6.90;;
3901;SDS011;1966;49.908;9.156;2023-03-01T00:27:47;13.33;;;8.37;;
3901;SDS011;1966;49.908;9.156;2023-03-01T00:32:47;14.50;;;8.90;;
3901;SDS011;1966;49.908;9.156;2023-03-01T00:37:46;13.17;;;8.50;;
3901;SDS011;1966;49.908;9.156;2023-03-01T00:42:45;14.10;;;8.10;;
3901;SDS011;1966;49.908;9.156;2023-03-01T00:47:46;16.80;;;8.87;;
3901;SDS011;1966;49.908;9.156;2023-03-01T00:52:46;13.50;;;8.37;;
3901;SDS011;1966;49.908;9.156;2023-03-01T00:57:45;13.97;;;8.27;;
3901;SDS011;1966;49.908;9.156;2023-03-01T01:02:46;14.50;;;8.90;;
3901;SDS011;1966;49.908;9.156;2023-03-01T01:07:45;16.03;;;8.17;;
3901;SDS011;1966;49.908;9.156;2023-03-01T01:12:44;15.30;;;8.63;;
3901;SDS011;1966;49.908;9.156;2023-03-01T01:17:45;14.17;;;8.33;;
3901;SDS011;1966;49.908;9.156;2023-03-01T01:22:44;12.70;;;7.40;;
3901;SDS011;1966;49.908;9.156;2023-03-01T01:27:44;11.47;;;7.00;;
3901;SDS011;1966;49.908;9.156;2023-03-01T01:32:43;11.93;;;6.87;;
3901;SDS011;1966;49.908;9.156;2023-03-01T01:37:43;12.43;;;7.67;;
3901;SDS011;1966;49.908;9.156;2023-03-01T01:42:43;11.80;;;7.50;;
3901;SDS011;1966;49.908;9.156;2023-03-01T01:47:42;11.00;;;6.87;;
3901;SDS011;1966;49.908;9.156;2023-03-01T01:52:41;11.87;;;6.80;;
3901;SDS011;1966;49.908;9.156;2023-03-01T01:57:43;11.13;;;7.50;;
3901;SDS011;1966;49.908;9.156;2023-03-01T02:02:44;12.50;;;7.57;;
3901;SDS011;1966;49.908;9.156;2023-03-01T02:07:44;11.90;;;7.80;;
3901;SDS011;1966;49.908;9.156;2023-03-01T02:12:44;14.90;;;8.50;;
3901;SDS011;1966;49.908;9.156;2023-03-01T02:17:44;11.70;;;7.63;;
3901;SDS011;1966;49.908;9.156;2023-03-01T02:22:44;13.67;;;8.10;;
3901;SDS011;1966;49.908;9.156;2023-03-01T02:27:48;11.93;;;7.10;;
3901;SDS011;1966;49.908;9.156;2023-03-01T02:32:51;12.43;;;7.93;;
3901;SDS011;1966;49.908;9.156;2023-03-01T02:37:51;15.07;;;8.13;;
3901;SDS011;1966;49.908;9.156;2023-03-01T02:42:56;9.33;;;6.37;;
3901;SDS011;1966;49.908;9.156;2023-03-01T02:47:57;9.63;;;6.57;;
3901;SDS011;1966;49.908;9.156;2023-03-01T02:52:56;9.60;;;7.00;;
3901;SDS011;1966;49.908;9.156;2023-03-01T02:57:57;12.97;;;7.90;;
3901;SDS011;1966;49.908;9.156;2023-03-01T03:03:01;12.20;;;7.57;;
3901;SDS011;1966;49.908;9.156;2023-03-01T03:08:00;13.50;;;8.37;;
3901;SDS011;1966;49.908;9.156;2023-03-01T03:13:01;11.10;;;6.90;;
3901;SDS011;1966;49.908;9.156;2023-03-01T03:18:02;11.37;;;7.57;;
3901;SDS011;1966;49.908;9.156;2023-03-01T03:23:02;9.83;;;6.57;;
3901;SDS011;1966;49.908;9.156;2023-03-01T03:28:01;10.60;;;7.10;;
3901;SDS011;1966;49.908;9.156;2023-03-01T03:33:09;10.70;;;7.87;;
3901;SDS011;1966;49.908;9.156;2023-03-01T03:38:09;15.87;;;8.70;;
3901;SDS011;1966;49.908;9.156;2023-03-01T03:43:15;12.73;;;7.97;;
3901;SDS011;1966;49.908;9.156;2023-03-01T03:48:16;11.03;;;7.43;;
3901;SDS011;1966;49.908;9.156;2023-03-01T03:53:15;13.03;;;7.80;;
3901;SDS011;1966;49.908;9.156;2023-03-01T03:58:15;10.77;;;8.30;;
3901;SDS011;1966;49.908;9.156;2023-03-01T04:03:19;12.23;;;7.70;;
3901;SDS011;1966;49.908;9.156;2023-03-01T04:08:19;10.80;;;7.70;;
3901;SDS011;1966;49.908;9.156;2023-03-01T04:13:19;10.77;;;6.97;;
3901;SDS011;1966;49.908;9.156;2023-03-01T04:18:21;11.03;;;7.17;;
3901;SDS011;1966;49.908;9.156;2023-03-01T04:23:20;12.03;;;8.00;;
3901;SDS011;1966;49.908;9.156;2023-03-01T04:28:20;12.37;;;7.70;;
3901;SDS011;1966;49.908;9.156;2023-03-01T04:33:21;10.63;;;6.70;;
3901;SDS011;1966;49.908;9.156;2023-03-01T04:38:20;11.43;;;7.17;;
3901;SDS011;1966;49.908;9.156;2023-03-01T04:43:20;10.37;;;7.03;;
3901;SDS011;1966;49.908;9.156;2023-03-01T04:48:20;10.20;;;6.83;;
3901;SDS011;1966;49.908;9.156;2023-03-01T04:53:20;13.83;;;7.63;;
3901;SDS011;1966;49.908;9.156;2023-03-01T04:58:19;11.90;;;7.93;;
3901;SDS011;1966;49.908;9.156;2023-03-01T05:03:18;15.43;;;7.87;;
3901;SDS011;1966;49.908;9.156;2023-03-01T05:08:19;13.63;;;7.67;;
3901;SDS011;1966;49.908;9.156;2023-03-01T05:13:19;12.10;;;8.40;;
3901;SDS011;1966;49.908;9.156;2023-03-01T05:18:19;13.87;;;8.53;;
3901;SDS011;1966;49.908;9.156;2023-03-01T05:23:20;10.60;;;7.57;;
3901;SDS011;1966;49.908;9.156;2023-03-01T05:28:19;14.50;;;8.43;;
3901;SDS011;1966;49.908;9.156;2023-03-01T05:33:19;13.83;;;8.00;;
3901;SDS011;1966;49.908;9.156;2023-03-01T05:38:21;12.07;;;7.33;;
3901;SDS011;1966;49.908;9.156;2023-03-01T05:43:21;12.37;;;8.43;;
3901;SDS011;1966;49.908;9.156;2023-03-01T05:48:20;13.27;;;8.53;;
3901;SDS011;1966;49.908;9.156;2023-03-01T05:53:20;13.17;;;8.23;;
3901;SDS011;1966;49.908;9.156;2023-03-01T05:58:20;21.17;;;10.60;;
3901;SDS011;1966;49.908;9.156;2023-03-01T06:03:19;19.03;;;11.40;;
3901;SDS011;1966;49.908;9.156;2023-03-01T06:08:18;17.40;;;10.40;;
3901;SDS011;1966;49.908;9.156;2023-03-01T06:13:21;25.47;;;13.70;;
3901;SDS011;1966;49.908;9.156;2023-03-01T06:18:21;18.77;;;11.33;;
3901;SDS011;1966;49.908;9.156;2023-03-01T06:23:20;21.90;;;10.87;;
3901;SDS011;1966;49.908;9.156;2023-03-01T06:28:21;17.80;;;11.60;;
3901;SDS011;1966;49.908;9.156;2023-03-01T06:33:20;20.73;;;12.87;;
3901;SDS011;1966;49.908;9.156;2023-03-01T06:38:22;19.57;;;11.53;;
3901;SDS011;1966;49.908;9.156;2023-03-01T06:43:23;18.87;;;11.73;;
3901;SDS011;1966;49.908;9.156;2023-03-01T06:48:23;23.20;;;12.33;;
3901;SDS011;1966;49.908;9.156;2023-03-01T06:53:22;17.83;;;11.53;;
3901;SDS011;1966;49.908;9.156;2023-03-01T06:58:22;21.57;;;13.30;;
3901;SDS011;1966;49.908;9.156;2023-03-01T07:03:22;21.27;;;12.43;;
3901;SDS011;1966;49.908;9.156;2023-03-01T07:08:21;18.97;;;10.47;;
3901;SDS011;1966;49.908;9.156;2023-03-01T07:13:22;18.03;;;11.87;;
3901;SDS011;1966;49.908;9.156;2023-03-01T07:18:21;21.20;;;11.27;;
3901;SDS011;1966;49.908;9.156;2023-03-01T07:23:21;17.33;;;11.50;;
3901;SDS011;1966;49.908;9.156;2023-03-01T07:28:23;19.87;;;11.40;;
3901;SDS011;1966;49.908;9.156;2023-03-01T07:33:22;22.53;;;12.37;;
3901;SDS011;1966;49.908;9.156;2023-03-01T07:38:23;19.27;;;11.50;;
3901;SDS011;1966;49.908;9.156;2023-03-01T07:43:23;17.37;;;11.13;;
3901;SDS011;1966;49.908;9.156;2023-03-01T07:48:22;22.57;;;10.43;;
3901;SDS011;1966;49.908;9.156;2023-03-01T07:53:22;18.60;;;10.70;;
3901;SDS011;1966;49.908;9.156;2023-03-01T07:58:21;15.03;;;10.07;;
3901;SDS011;1966;49.908;9.156;2023-03-01T08:03:22;16.30;;;11.10;;
3901;SDS011;1966;49.908;9.156;2023-03-01T08:08:21;22.53;;;13.63;;
3901;SDS011;1966;49.908;9.156;2023-03-01T08:13:20;18.20;;;12.30;;
3901;SDS011;1966;49.908;9.156;2023-03-01T08:18:21;19.60;;;12.37;;
3901;SDS011;1966;49.908;9.156;2023-03-01T08:23:21;16.30;;;11.00;;
3901;SDS011;1966;49.908;9.156;2023-03-01T08:28:20;18.57;;;11.83;;
3901;SDS011;1966;49.908;9.156;2023-03-01T08:33:19;17.30;;;11.37;;
3901;SDS011;1966;49.908;9.156;2023-03-01T08:38:20;17.40;;;10.87;;
3901;SDS011;1966;49.908;9.156;2023-03-01T08:43:19;20.63;;;12.50;;
3901;SDS011;1966;49.908;9.156;2023-03-01T08:48:18;18.43;;;11.73;;
3901;SDS011;1966;49.908;9.156;2023-03-01T08:53:17;17.30;;;12.13;;
3901;SDS011;1966;49.908;9.156;2023-03-01T08:58:18;19.70;;;11.50;;
3901;SDS011;1966;49.908;9.156;2023-03-01T09:03:17;19.93;;;11.53;;
3901;SDS011;1966;49.908;9.156;2023-03-01T09:08:16;16.67;;;11.00;;
3901;SDS011;1966;49.908;9.156;2023-03-01T09:13:17;17.90;;;11.90;;
3901;SDS011;1966;49.908;9.156;2023-03-01T09:18:16;19.50;;;12.13;;
3901;SDS011;1966;49.908;9.156;2023-03-01T09:23:16;18.67;;;13.33;;
3901;SDS011;1966;49.908;9.156;2023-03-01T09:28:17;18.87;;;12.50;;
3901;SDS011;1966;49.908;9.156;2023-03-01T09:33:16;20.57;;;12.50;;
3901;SDS011;1966;49.908;9.156;2023-03-01T09:38:15;21.37;;;12.90;;
3901;SDS011;1966;49.908;9.156;2023-03-01T09:43:15;19.13;;;12.40;;
3901;SDS011;1966;49.908;9.156;2023-03-01T09:48:20;19.83;;;13.90;;
3901;SDS011;1966;49.908;9.156;2023-03-01T09:53:22;17.30;;;11.40;;
3901;SDS011;1966;49.908;9.156;2023-03-01T09:58:34;19.30;;;12.47;;
3901;SDS011;1966;49.908;9.156;2023-03-01T10:03:36;16.13;;;11.93;;
3901;SDS011;1966;49.908;9.156;2023-03-01T10:08:38;17.10;;;11.33;;
3901;SDS011;1966;49.908;9.156;2023-03-01T10:13:42;15.57;;;11.53;;
3901;SDS011;1966;49.908;9.156;2023-03-01T10:18:51;15.63;;;12.13;;
3901;SDS011;1966;49.908;9.156;2023-03-01T10:23:50;20.33;;;12.37;;
3901;SDS011;1966;49.908;9.156;2023-03-01T10:28:53;20.97;;;12.80;;
3901;SDS011;1966;49.908;9.156;2023-03-01T10:33:58;17.17;;;11.30;;
3901;SDS011;1966;49.908;9.156;2023-03-01T10:38:59;16.33;;;12.07;;
3901;SDS011;1966;49.908;9.156;2023-03-01T10:43:59;15.17;;;11.87;;
3901;SDS011;1966;49.908;9.156;2023-03-01T10:49:13;16.10;;;12.40;;
3901;SDS011;1966;49.908;9.156;2023-03-01T10:54:17;18.50;;;12.07;;
3901;SDS011;1966;49.908;9.156;2023-03-01T10:59:20;17.93;;;12.50;;
3901;SDS011;1966;49.908;9.156;2023-03-01T11:04:22;17.27;;;11.63;;
3901;SDS011;1966;49.908;9.156;2023-03-01T11:09:21;13.60;;;10.93;;
3901;SDS011;1966;49.908;9.156;2023-03-01T11:14:22;14.80;;;10.27;;
3901;SDS011;1966;49.908;9.156;2023-03-01T11:19:23;16.80;;;12.17;;
3901;SDS011;1966;49.908;9.156;2023-03-01T11:24:23;16.07;;;11.63;;
3901;SDS011;1966;49.908;9.156;2023-03-01T11:29:26;17.37;;;11.10;;
3901;SDS011;1966;49.908;9.156;2023-03-01T11:34:31;12.00;;;10.53;;
3901;SDS011;1966;49.908;9.156;2023-03-01T11:39:34;15.43;;;11.60;;
3901;SDS011;1966;49.908;9.156;2023-03-01T11:44:34;12.70;;;10.67;;
3901;SDS011;1966;49.908;9.156;2023-03-01T11:49:43;13.10;;;9.60;;
3901;SDS011;1966;49.908;9.156;2023-03-01T11:54:50;10.97;;;9.60;;
3901;SDS011;1966;49.908;9.156;2023-03-01T11:59:58;14.77;;;11.27;;
3901;SDS011;1966;49.908;9.156;2023-03-01T12:10:32;14.60;;;11.93;;
3901;SDS011;1966;49.908;9.156;2023-03-01T12:15:47;13.53;;;11.10;;
3901;SDS011;1966;49.908;9.156;2023-03-01T12:20:51;12.73;;;10.67;;
3901;SDS011;1966;49.908;9.156;2023-03-01T12:25:54;14.60;;;10.53;;
3901;SDS011;1966;49.908;9.156;2023-03-01T12:30:59;14.57;;;10.73;;
3901;SDS011;1966;49.908;9.156;2023-03-01T12:36:08;12.40;;;10.50;;
3901;SDS011;1966;49.908;9.156;2023-03-01T12:41:23;13.20;;;11.70;;
3901;SDS011;1966;49.908;9.156;2023-03-01T12:46:30;10.80;;;9.70;;
3901;SDS011;1966;49.908;9.156;2023-03-01T12:51:33;10.77;;;9.50;;
3901;SDS011;1966;49.908;9.156;2023-03-01T12:56:35;11.97;;;10.50;;
3901;SDS011;1966;49.908;9.156;2023-03-01T13:01:39;12.00;;;10.10;;
3901;SDS011;1966;49.908;9.156;2023-03-01T13:06:40;10.30;;;9.20;;
3901;SDS011;1966;49.908;9.156;2023-03-01T13:11:42;12.00;;;10.20;;
3901;SDS011;1966;49.908;9.156;2023-03-01T13:16:42;10.20;;;9.10;;
3901;SDS011;1966;49.908;9.156;2023-03-01T13:21:43;10.27;;;9.10;;
3901;SDS011;1966;49.908;9.156;2023-03-01T13:31:58;12.13;;;9.37;;
3901;SDS011;1966;49.908;9.156;2023-03-01T13:37:09;10.37;;;9.23;;
3901;SDS011;1966;49.908;9.156;2023-03-01T13:47:42;9.43;;;8.27;;
3901;SDS011;1966;49.908;9.156;2023-03-01T13:52:43;12.17;;;8.90;;
3901;SDS011;1966;49.908;9.156;2023-03-01T13:57:43;13.40;;;9.00;;
3901;SDS011;1966;49.908;9.156;2023-03-01T14:02:44;10.90;;;9.07;;
3901;SDS011;1966;49.908;9.156;2023-03-01T14:07:50;9.77;;;7.90;;
3901;SDS011;1966;49.908;9.156;2023-03-01T14:12:50;10.20;;;8.27;;
3901;SDS011;1966;49.908;9.156;2023-03-01T14:18:00;9.77;;;8.77;;
3901;SDS011;1966;49.908;9.156;2023-03-01T14:23:02;10.60;;;8.33;;
3901;SDS011;1966;49.908;9.156;2023-03-01T14:28:13;9.73;;;8.73;;
3901;SDS011;1966;49.908;9.156;2023-03-01T14:33:22;10.10;;;8.53;;
3901;SDS011;1966;49.908;9.156;2023-03-01T14:38:21;10.27;;;8.97;;
3901;SDS011;1966;49.908;9.156;2023-03-01T14:43:21;9.47;;;8.47;;
3901;SDS011;1966;49.908;9.156;2023-03-01T14:48:23;9.60;;;8.40;;
3901;SDS011;1966;49.908;9.156;2023-03-01T14:53:23;9.97;;;8.30;;
3901;SDS011;1966;49.908;9.156;2023-03-01T14:58:23;9.80;;;8.60;;
3901;SDS011;1966;49.908;9.156;2023-03-01T15:03:27;8.50;;;7.33;;
3901;SDS011;1966;49.908;9.156;2023-03-01T15:08:29;11.53;;;8.40;;
3901;SDS011;1966;49.908;9.156;2023-03-01T15:13:32;9.40;;;7.50;;
3901;SDS011;1966;49.908;9.156;2023-03-01T15:18:33;10.30;;;8.10;;
3901;SDS011;1966;49.908;9.156;2023-03-01T15:23:33;10.30;;;8.03;;
3901;SDS011;1966;49.908;9.156;2023-03-01T15:28:33;10.50;;;7.93;;
3901;SDS011;1966;49.908;9.156;2023-03-01T15:33:37;7.97;;;7.10;;
3901;SDS011;1966;49.908;9.156;2023-03-01T15:38:50;8.73;;;7.87;;
3901;SDS011;1966;49.908;9.156;2023-03-01T15:43:49;7.53;;;6.67;;
3901;SDS011;1966;49.908;9.156;2023-03-01T15:48:54;8.70;;;6.83;;
3901;SDS011;1966;49.908;9.156;2023-03-01T15:53:54;11.00;;;6.70;;
3901;SDS011;1966;49.908;9.156;2023-03-01T15:58:57;9.80;;;7.90;;
3901;SDS011;1966;49.908;9.156;2023-03-01T16:03:57;7.73;;;6.17;;
3901;SDS011;1966;49.908;9.156;2023-03-01T16:08:57;9.83;;;7.87;;
3901;SDS011;1966;49.908;9.156;2023-03-01T16:13:56;9.90;;;7.87;;
3901;SDS011;1966;49.908;9.156;2023-03-01T16:18:55;14.33;;;9.37;;
3901;SDS011;1966;49.908;9.156;2023-03-01T16:23:56;13.30;;;8.70;;
3901;SDS011;1966;49.908;9.156;2023-03-01T16:28:55;11.40;;;7.40;;
3901;SDS011;1966;49.908;9.156;2023-03-01T16:33:55;9.40;;;6.70;;
3901;SDS011;1966;49.908;9.156;2023-03-01T16:38:56;16.10;;;8.20;;
3901;SDS011;1966;49.908;9.156;2023-03-01T16:43:56;11.10;;;7.17;;
3901;SDS011;1966;49.908;9.156;2023-03-01T16:48:56;15.40;;;9.77;;
3901;SDS011;1966;49.908;9.156;2023-03-01T16:53:56;19.70;;;11.70;;
3901;SDS011;1966;49.908;9.156;2023-03-01T16:58:56;21.40;;;13.83;;
3901;SDS011;1966;49.908;9.156;2023-03-01T17:03:57;15.60;;;11.97;;
3901;SDS011;1966;49.908;9.156;2023-03-01T17:08:57;24.00;;;13.27;;
3901;SDS011;1966;49.908;9.156;2023-03-01T17:13:57;24.00;;;15.70;;
3901;SDS011;1966;49.908;9.156;2023-03-01T17:18:56;25.97;;;15.93;;
3901;SDS011;1966;49.908;9.156;2023-03-01T17:23:56;17.70;;;11.33;;
3901;SDS011;1966;49.908;9.156;2023-03-01T17:28:56;24.60;;;15.37;;
3901;SDS011;1966;49.908;9.156;2023-03-01T17:33:56;32.10;;;17.07;;
3901;SDS011;1966;49.908;9.156;2023-03-01T17:38:55;36.37;;;19.33;;
3901;SDS011;1966;49.908;9.156;2023-03-01T17:43:54;47.40;;;25.37;;
3901;SDS011;1966;49.908;9.156;2023-03-01T17:48:55;43.50;;;24.40;;
3901;SDS011;1966;49.908;9.156;2023-03-01T17:53:54;38.63;;;22.30;;
3901;SDS011;1966;49.908;9.156;2023-03-01T17:58:54;35.10;;;19.63;;
3901;SDS011;1966;49.908;9.156;2023-03-01T18:03:53;23.50;;;14.63;;
3901;SDS011;1966;49.908;9.156;2023-03-01T18:08:54;19.50;;;10.70;;
3901;SDS011;1966;49.908;9.156;2023-03-01T18:13:53;14.80;;;9.17;;
3901;SDS011;1966;49.908;9.156;2023-03-01T18:18:53;13.20;;;8.23;;
3901;SDS011;1966;49.908;9.156;2023-03-01T18:23:54;12.43;;;8.60;;
3901;SDS011;1966;49.908;9.156;2023-03-01T18:28:53;13.63;;;9.23;;
3901;SDS011;1966;49.908;9.156;2023-03-01T18:33:55;18.97;;;10.50;;
3901;SDS011;1966;49.908;9.156;2023-03-01T18:38:55;21.73;;;12.37;;
3901;SDS011;1966;49.908;9.156;2023-03-01T18:43:55;22.23;;;12.03;;
3901;SDS011;1966;49.908;9.156;2023-03-01T18:48:54;23.53;;;12.07;;
3901;SDS011;1966;49.908;9.156;2023-03-01T18:53:54;18.70;;;10.37;;
3901;SDS011;1966;49.908;9.156;2023-03-01T18:58:54;30.83;;;17.57;;
3901;SDS011;1966;49.908;9.156;2023-03-01T19:03:54;23.40;;;15.77;;
3901;SDS011;1966;49.908;9.156;2023-03-01T19:08:54;24.57;;;16.13;;
3901;SDS011;1966;49.908;9.156;2023-03-01T19:13:55;20.07;;;12.13;;
3901;SDS011;1966;49.908;9.156;2023-03-01T19:18:55;18.70;;;11.70;;
3901;SDS011;1966;49.908;9.156;2023-03-01T19:23:56;16.97;;;10.60;;
3901;SDS011;1966;49.908;9.156;2023-03-01T19:28:57;16.90;;;10.30;;
3901;SDS011;1966;49.908;9.156;2023-03-01T19:33:57;16.00;;;10.40;;
3901;SDS011;1966;49.908;9.156;2023-03-01T19:38:56;16.33;;;10.33;;
3901;SDS011;1966;49.908;9.156;2023-03-01T19:43:55;17.93;;;11.10;;
3901;SDS011;1966;49.908;9.156;2023-03-01T19:48:56;20.73;;;12.70;;
3901;SDS011;1966;49.908;9.156;2023-03-01T19:53:57;20.67;;;13.30;;
3901;SDS011;1966;49.908;9.156;2023-03-01T19:58:56;23.53;;;14.17;;
3901;SDS011;1966;49.908;9.156;2023-03-01T20:04:02;20.00;;;12.77;;
3901;SDS011;1966;49.908;9.156;2023-03-01T20:09:02;22.87;;;12.10;;
3901;SDS011;1966;49.908;9.156;2023-03-01T20:14:01;22.40;;;12.80;;
3901;SDS011;1966;49.908;9.156;2023-03-01T20:19:05;19.80;;;11.50;;
3901;SDS011;1966;49.908;9.156;2023-03-01T20:24:04;17.83;;;11.20;;
3901;SDS011;1966;49.908;9.156;2023-03-01T20:29:03;20.83;;;13.60;;
3901;SDS011;1966;49.908;9.156;2023-03-01T20:34:06;21.00;;;12.40;;
3901;SDS011;1966;49.908;9.156;2023-03-01T20:39:05;18.53;;;12.17;;
3901;SDS011;1966;49.908;9.156;2023-03-01T20:44:04;18.70;;;10.80;;
3901;SDS011;1966;49.908;9.156;2023-03-01T20:49:05;20.03;;;12.17;;
3901;SDS011;1966;49.908;9.156;2023-03-01T20:54:05;23.53;;;14.20;;
3901;SDS011;1966;49.908;9.156;2023-03-01T20:59:05;20.20;;;12.90;;
3901;SDS011;1966;49.908;9.156;2023-03-01T21:04:06;25.00;;;12.73;;
3901;SDS011;1966;49.908;9.156;2023-03-01T21:09:06;21.27;;;13.20;;
3901;SDS011;1966;49.908;9.156;2023-03-01T21:14:05;21.40;;;11.87;;
3901;SDS011;1966;49.908;9.156;2023-03-01T21:19:04;19.90;;;11.50;;
3901;SDS011;1966;49.908;9.156;2023-03-01T21:24:05;20.67;;;12.27;;
3901;SDS011;1966;49.908;9.156;2023-03-01T21:29:07;18.77;;;11.67;;
3901;SDS011;1966;49.908;9.156;2023-03-01T21:34:06;19.47;;;11.13;;
3901;SDS011;1966;49.908;9.156;2023-03-01T21:39:06;21.67;;;11.77;;
3901;SDS011;1966;49.908;9.156;2023-03-01T21:44:06;16.60;;;10.20;;
3901;SDS011;1966;49.908;9.156;2023-03-01T21:49:06;19.10;;;10.77;;
3901;SDS011;1966;49.908;9.156;2023-03-01T21:54:07;16.30;;;10.33;;
3901;SDS011;1966;49.908;9.156;2023-03-01T21:59:06;16.93;;;10.50;;
3901;SDS011;1966;49.908;9.156;2023-03-01T22:04:06;20.80;;;10.80;;
3901;SDS011;1966;49.908;9.156;2023-03-01T22:09:07;17.80;;;10.90;;
3901;SDS011;1966;49.908;9.156;2023-03-01T22:14:07;16.00;;;10.10;;
3901;SDS011;1966;49.908;9.156;2023-03-01T22:19:06;16.83;;;11.33;;
3901;SDS011;1966;49.908;9.156;2023-03-01T22:24:08;21.37;;;12.00;;
3901;SDS011;1966;49.908;9.156;2023-03-01T22:29:08;19.10;;;11.07;;
3901;SDS011;1966;49.908;9.156;2023-03-01T22:34:08;20.30;;;11.70;;
3901;SDS011;1966;49.908;9.156;2023-03-01T22:39:09;20.50;;;12.60;;
3901;SDS011;1966;49.908;9.156;2023-03-01T22:44:08;20.87;;;12.00;;
3901;SDS011;1966;49.908;9.156;2023-03-01T22:49:08;19.03;;;11.43;;
3901;SDS011;1966;49.908;9.156;2023-03-01T22:54:09;20.27;;;11.27;;
3901;SDS011;1966;49.908;9.156;2023-03-01T22:59:10;18.33;;;10.60;;
3901;SDS011;1966;49.908;9.156;2023-03-01T23:04:10;18.50;;;10.40;;
3901;SDS011;1966;49.908;9.156;2023-03-01T23:09:11;26.17;;;13.03;;
3901;SDS011;1966;49.908;9.156;2023-03-01T23:14:10;22.20;;;11.70;;
3901;SDS011;1966;49.908;9.156;2023-03-01T23:19:10;18.67;;;10.97;;
3901;SDS011;1966;49.908;9.156;2023-03-01T23:24:10;19.73;;;11.50;;
3901;SDS011;1966;49.908;9.156;2023-03-01T23:29:10;19.90;;;10.57;;
3901;SDS011;1966;49.908;9.156;2023-03-01T23:34:10;21.70;;;12.20;;
3901;SDS011;1966;49.908;9.156;2023-03-01T23:39:11;17.50;;;9.83;;
3901;SDS011;1966;49.908;9.156;2023-03-01T23:44:11;17.97;;;10.60;;
3901;SDS011;1966;49.908;9.156;2023-03-01T23:49:13;20.83;;;11.23;;
3901;SDS011;1966;49.908;9.156;2023-03-01T23:54:14;20.77;;;11.30;;
3901;SDS011;1966;49.908;9.156;2023-03-01T23:59:15;21.97;;;12.27;;
